TimeEST,TemperatureF,Dew PointF,Humidity,Sea Level PressureIn,VisibilityMPH,Wind Direction,Wind SpeedMPH,Gust SpeedMPH,PrecipitationIn,Events,Conditions,WindDirDegrees,DateUTC
12:53 AM,30.0,28.0,92,30.39,8.0,Calm,Calm,-,N/A,,Clear,0,2012-11-16 05:53:00
1:53 AM,30.0,28.0,92,30.39,8.0,Calm,Calm,-,N/A,,Clear,0,2012-11-16 06:53:00
2:53 AM,30.0,28.0,92,30.41,6.0,Calm,Calm,-,N/A,,Clear,0,2012-11-16 07:53:00
3:53 AM,28.0,26.1,92,30.41,7.0,Calm,Calm,-,N/A,,Clear,0,2012-11-16 08:53:00
4:53 AM,28.9,27.0,92,30.43,7.0,Calm,Calm,-,N/A,,Clear,0,2012-11-16 09:53:00
5:53 AM,28.9,27.0,92,30.43,6.0,Calm,Calm,-,N/A,,Clear,0,2012-11-16 10:53:00
6:53 AM,28.0,26.1,92,30.44,6.0,Calm,Calm,-,N/A,,Clear,0,2012-11-16 11:53:00
7:53 AM,28.0,26.1,92,30.46,6.0,Calm,Calm,-,N/A,,Clear,0,2012-11-16 12:53:00
8:53 AM,35.1,30.9,85,30.47,6.0,Calm,Calm,-,N/A,,Clear,0,2012-11-16 13:53:00
9:53 AM,39.9,30.0,68,30.48,8.0,Calm,Calm,-,N/A,,Clear,0,2012-11-16 14:53:00
10:53 AM,45.0,32.0,60,30.48,8.0,Calm,Calm,-,N/A,,Clear,0,2012-11-16 15:53:00
11:53 AM,48.0,32.0,54,30.48,8.0,Calm,Calm,-,N/A,,Clear,0,2012-11-16 16:53:00
12:53 PM,50.0,32.0,50,30.46,8.0,Calm,Calm,-,N/A,,Clear,0,2012-11-16 17:53:00
1:53 PM,52.0,30.9,45,30.46,9.0,Calm,Calm,-,N/A,,Clear,0,2012-11-16 18:53:00
2:53 PM,52.0,30.9,45,30.46,9.0,Calm,Calm,-,N/A,,Clear,0,2012-11-16 19:53:00
3:53 PM,51.1,30.9,46,30.47,10.0,WSW,4.6,-,N/A,,Clear,240,2012-11-16 20:53:00
4:53 PM,50.0,30.0,46,30.48,9.0,Calm,Calm,-,N/A,,Clear,0,2012-11-16 21:53:00
5:53 PM,44.1,32.0,63,30.50,10.0,Calm,Calm,-,N/A,,Clear,0,2012-11-16 22:53:00
6:53 PM,45.0,32.0,60,30.51,9.0,WSW,3.5,-,N/A,,Clear,250,2012-11-16 23:53:00
7:53 PM,39.9,32.0,73,30.52,8.0,Calm,Calm,-,N/A,,Clear,0,2012-11-17 00:53:00
8:53 PM,39.0,32.0,76,30.52,8.0,SE,3.5,-,N/A,,Clear,130,2012-11-17 01:53:00
9:53 PM,36.0,32.0,86,30.53,7.0,Calm,Calm,-,N/A,,Clear,0,2012-11-17 02:53:00
10:53 PM,35.1,32.0,89,30.52,6.0,Calm,Calm,-,N/A,,Clear,0,2012-11-17 03:53:00
11:53 PM,34.0,32.0,92,30.53,6.0,Calm,Calm,-,N/A,,Clear,0,2012-11-17 04:53:00